Toronto, Canada
Current Conditions -  °F | °C
As of 10:00 AM on Saturday 20 Dec 2014 (Local Time) from CYYZ Reporting Station
Scattered Clouds Scattered Clouds  
Wind Chill: 17°   Ceiling: Unl
Heat Index: 25°   Visibility: 15mi
Dew Point: 21°   Wind: 7mph
Humidity: 86%   Direction: 340°NNW
Pressure: 30.31"   Gusts: NA
Location:  43.65°N, 79.39°W
Report Text: CYYZ 201500Z 34006KT 15SM FEW020 FEW080 SCT250 M04/M06 A3031 RMK CF1AC2CI2 CF TR SLP273
Loading
Personal Weather Stations






























Interactive Weather Map New forecast layout! Learn more

10-Day Weather Forecast

Advertisements
Track Severe Weather on mobile